createdAt,value
2022-12-28T00:00:12.747Z,3.20
2022-12-28T00:02:40.813Z,3.07
2022-12-28T00:05:10.974Z,2.67
2022-12-28T00:07:39.195Z,3.00
2022-12-28T00:10:08.003Z,2.70
2022-12-28T00:12:35.913Z,3.30
2022-12-28T00:15:04.011Z,3.23
2022-12-28T00:17:31.979Z,3.33
2022-12-28T00:20:00.425Z,3.77
2022-12-28T00:22:29.903Z,2.63
2022-12-28T00:24:57.828Z,2.50
2022-12-28T00:27:25.888Z,3.30
2022-12-28T00:29:53.923Z,3.43
2022-12-28T00:32:22.197Z,3.40
2022-12-28T00:34:50.122Z,3.10
2022-12-28T00:37:18.109Z,2.63
2022-12-28T00:39:47.413Z,2.20
2022-12-28T00:42:16.244Z,2.77
2022-12-28T00:44:45.113Z,2.20
2022-12-28T00:47:12.982Z,2.43
2022-12-28T00:49:41.031Z,2.40
2022-12-28T00:52:09.223Z,2.20
2022-12-28T00:54:37.063Z,2.70
2022-12-28T00:57:06.433Z,2.40
2022-12-28T00:59:37.020Z,2.50
2022-12-28T01:02:04.982Z,2.30
2022-12-28T01:04:32.853Z,2.43
2022-12-28T01:07:00.789Z,1.90
2022-12-28T01:09:28.738Z,2.47
2022-12-28T01:11:56.638Z,2.07
2022-12-28T01:14:26.226Z,2.33
2022-12-28T01:16:54.292Z,2.00
2022-12-28T01:19:23.763Z,3.20
2022-12-28T01:21:52.600Z,4.27
2022-12-28T01:24:20.629Z,4.63
2022-12-28T01:26:48.405Z,4.47
2022-12-28T01:29:16.483Z,4.70
2022-12-28T01:31:45.793Z,4.60
2022-12-28T01:34:13.987Z,4.47
2022-12-28T01:36:41.920Z,4.50
2022-12-28T01:39:11.181Z,4.90
2022-12-28T01:41:41.583Z,4.30
2022-12-28T01:44:43.388Z,4.10
2022-12-28T01:47:18.346Z,3.33
2022-12-28T01:49:59.482Z,2.63
2022-12-28T01:52:33.457Z,2.33
2022-12-28T01:55:07.116Z,2.37
2022-12-28T01:57:40.185Z,2.47
2022-12-28T02:00:11.996Z,2.40
2022-12-28T02:02:52.046Z,2.10
2022-12-28T02:05:25.332Z,3.10
2022-12-28T02:07:58.446Z,4.70
2022-12-28T02:10:42.370Z,4.03
2022-12-28T02:13:14.509Z,4.80
2022-12-28T02:15:42.465Z,4.20
2022-12-28T02:18:12.909Z,4.30
2022-12-28T02:20:53.962Z,4.50
2022-12-28T02:23:50.456Z,3.90
2022-12-28T02:26:44.564Z,4.53
2022-12-28T02:29:30.915Z,4.53
2022-12-28T02:32:10.409Z,4.20
2022-12-28T02:34:46.885Z,4.40
2022-12-28T02:37:20.297Z,4.23
2022-12-28T02:39:54.152Z,4.17
2022-12-28T02:42:24.597Z,3.90
2022-12-28T02:45:25.645Z,3.70
2022-12-28T02:48:11.923Z,3.30
2022-12-28T02:50:49.966Z,2.70
2022-12-28T02:53:43.357Z,3.07
2022-12-28T02:56:23.009Z,2.10
2022-12-28T02:59:15.544Z,2.10
2022-12-28T03:02:00.869Z,1.77
2022-12-28T03:04:42.713Z,2.40
2022-12-28T03:07:35.462Z,2.70
2022-12-28T03:10:13.393Z,2.20
2022-12-28T03:12:48.686Z,1.80
2022-12-28T03:15:29.809Z,2.20
2022-12-28T03:18:24.590Z,2.30
2022-12-28T03:21:13.111Z,3.80
2022-12-28T03:24:01.387Z,2.43
2022-12-28T03:26:51.960Z,1.80
2022-12-28T03:29:40.389Z,2.60
2022-12-28T03:32:09.709Z,2.80
2022-12-28T03:34:41.606Z,2.10
2022-12-28T03:37:18.450Z,1.93
2022-12-28T03:39:52.461Z,1.70
2022-12-28T03:42:45.975Z,2.00
2022-12-28T03:45:45.297Z,2.67
2022-12-28T03:48:11.457Z,2.83
2022-12-28T03:50:44.059Z,3.50
2022-12-28T03:53:12.194Z,3.60
2022-12-28T03:55:43.272Z,3.50
2022-12-28T03:58:11.697Z,3.37
2022-12-28T04:04:52.214Z,2.47
2022-12-28T04:07:21.650Z,2.37
2022-12-28T04:09:51.143Z,2.60
2022-12-28T04:12:19.993Z,3.10
2022-12-28T04:15:07.603Z,3.17
2022-12-28T04:17:35.905Z,3.40
2022-12-28T04:20:07.423Z,3.33
2022-12-28T04:22:39.697Z,2.90
2022-12-28T04:25:08.059Z,3.60
2022-12-28T04:27:37.933Z,3.27
2022-12-28T04:30:14.122Z,4.27
2022-12-28T04:32:42.202Z,3.07
2022-12-28T04:35:14.253Z,3.37
2022-12-28T04:37:50.488Z,3.33
2022-12-28T04:40:18.548Z,3.50
2022-12-28T04:42:46.382Z,3.70
2022-12-28T04:45:18.385Z,3.30
2022-12-28T04:47:49.923Z,3.83
2022-12-28T04:50:17.880Z,3.67
2022-12-28T04:52:47.993Z,3.80
2022-12-28T04:55:31.533Z,3.10
2022-12-28T04:58:01.461Z,1.73
2022-12-28T05:00:31.712Z,1.20
2022-12-28T05:03:02.395Z,1.03
2022-12-28T05:05:33.186Z,1.20
2022-12-28T05:08:02.038Z,1.17
2022-12-28T05:10:33.513Z,1.10
2022-12-28T05:13:01.397Z,0.83
2022-12-28T05:15:29.186Z,1.03
2022-12-28T05:17:57.181Z,0.83
2022-12-28T05:20:25.034Z,0.90
2022-12-28T05:22:54.944Z,0.97
2022-12-28T05:25:22.861Z,0.90
2022-12-28T05:27:52.071Z,0.93
2022-12-28T05:30:19.899Z,0.80
2022-12-28T05:32:47.759Z,0.90
2022-12-28T05:35:15.647Z,1.00
2022-12-28T05:37:43.563Z,0.80
2022-12-28T05:40:12.109Z,0.90
2022-12-28T05:42:39.957Z,0.80
2022-12-28T05:45:09.798Z,1.00
2022-12-28T05:47:37.610Z,0.90
2022-12-28T05:50:06.184Z,1.33
2022-12-28T05:52:38.565Z,0.70
2022-12-28T05:55:07.800Z,1.23
2022-12-28T05:57:35.576Z,0.87
2022-12-28T06:00:03.751Z,0.90
2022-12-28T06:02:40.966Z,0.90
2022-12-28T06:05:09.833Z,0.93
2022-12-28T06:07:37.791Z,1.27
2022-12-28T06:10:06.347Z,1.07
2022-12-28T06:12:34.112Z,1.40
2022-12-28T06:15:01.873Z,0.90
2022-12-28T06:17:29.688Z,0.87
2022-12-28T06:19:58.853Z,1.10
2022-12-28T06:22:26.730Z,1.10
2022-12-28T06:24:54.527Z,0.80
2022-12-28T06:27:22.349Z,0.80
2022-12-28T06:29:51.175Z,0.97
2022-12-28T06:32:19.009Z,0.70
2022-12-28T06:34:46.843Z,0.80
2022-12-28T06:37:15.965Z,0.87
2022-12-28T06:39:43.803Z,0.80
2022-12-28T06:42:11.743Z,0.80
2022-12-28T06:44:44.505Z,0.80
2022-12-28T06:47:13.344Z,1.20
2022-12-28T06:49:41.224Z,0.80
2022-12-28T06:52:09.077Z,0.90
2022-12-28T06:54:38.291Z,1.00
2022-12-28T06:57:06.140Z,1.07
2022-12-28T06:59:34.001Z,0.80
2022-12-28T07:02:02.086Z,1.00
2022-12-28T07:04:29.993Z,0.93
2022-12-28T07:06:57.937Z,0.90
2022-12-28T07:09:25.826Z,1.03
2022-12-28T07:11:55.163Z,1.17
2022-12-28T07:14:23.041Z,1.00
2022-12-28T07:16:51.046Z,1.20
2022-12-28T07:19:18.926Z,1.40
2022-12-28T07:21:46.767Z,1.00
2022-12-28T07:24:14.832Z,0.93
2022-12-28T07:26:43.261Z,1.03
2022-12-28T07:29:12.513Z,0.93
2022-12-28T07:31:45.835Z,0.97
2022-12-28T07:34:14.955Z,1.10
2022-12-28T07:36:42.843Z,1.20
2022-12-28T07:39:10.772Z,1.30
2022-12-28T07:41:38.661Z,1.13
2022-12-28T07:44:07.016Z,1.10
2022-12-28T07:46:38.044Z,1.10
2022-12-28T07:49:06.187Z,1.30
2022-12-28T07:51:36.051Z,1.13
2022-12-28T07:54:05.311Z,1.07
2022-12-28T07:59:02.653Z,1.40
2022-12-28T08:01:34.939Z,1.00
2022-12-28T08:04:06.277Z,1.30
2022-12-28T08:06:36.489Z,1.07
2022-12-28T08:09:06.523Z,1.27
2022-12-28T08:11:36.928Z,1.63
2022-12-28T08:14:06.030Z,1.10
2022-12-28T08:16:38.785Z,1.10
2022-12-28T08:19:09.395Z,1.17
2022-12-28T08:21:38.577Z,1.37
2022-12-28T08:24:07.525Z,0.93
2022-12-28T08:26:38.525Z,1.10
2022-12-28T08:29:09.793Z,1.20
2022-12-28T08:31:39.874Z,0.93
2022-12-28T08:34:15.221Z,1.73
2022-12-28T08:36:43.218Z,0.83
2022-12-28T08:39:11.188Z,0.90
2022-12-28T08:41:39.172Z,0.97
2022-12-28T08:44:07.678Z,1.20
2022-12-28T08:46:40.376Z,1.30
2022-12-28T08:49:08.648Z,1.20
2022-12-28T08:51:42.393Z,1.00
2022-12-28T08:54:11.468Z,0.90
2022-12-28T08:56:41.333Z,1.10
2022-12-28T08:59:09.881Z,1.13
2022-12-28T09:01:44.250Z,0.90
2022-12-28T09:04:15.282Z,0.90
2022-12-28T09:06:44.755Z,1.10
2022-12-28T09:09:14.277Z,1.03
2022-12-28T09:11:42.904Z,1.10
2022-12-28T09:14:20.368Z,0.93
2022-12-28T09:16:51.348Z,1.20
2022-12-28T09:19:19.344Z,1.03
2022-12-28T09:21:49.436Z,0.80
2022-12-28T09:24:17.672Z,1.10
2022-12-28T09:26:45.781Z,0.93
2022-12-28T09:29:14.707Z,0.90
2022-12-28T09:31:44.341Z,1.20
2022-12-28T09:37:03.907Z,1.07
2022-12-28T09:39:31.806Z,0.80
2022-12-28T09:42:03.408Z,1.13
2022-12-28T09:44:37.965Z,1.20
2022-12-28T09:47:17.449Z,1.20
2022-12-28T09:49:54.575Z,1.13
2022-12-28T09:52:31.508Z,1.10
2022-12-28T09:55:08.240Z,1.20
2022-12-28T09:57:40.543Z,1.10
2022-12-28T10:00:17.275Z,1.40
2022-12-28T10:02:48.220Z,1.53
2022-12-28T10:05:17.134Z,1.20
2022-12-28T10:07:46.378Z,0.90
2022-12-28T10:10:18.458Z,1.17
2022-12-28T10:12:47.065Z,1.00
2022-12-28T10:15:15.686Z,1.23
2022-12-28T10:17:44.655Z,0.80
2022-12-28T10:20:17.932Z,1.20
2022-12-28T10:22:52.007Z,0.97
2022-12-28T10:25:23.488Z,0.80
2022-12-28T10:27:51.785Z,0.93
2022-12-28T10:30:24.025Z,0.93
2022-12-28T10:32:59.702Z,0.90
2022-12-28T10:35:34.903Z,1.10
2022-12-28T10:38:07.576Z,0.70
2022-12-28T10:40:39.371Z,0.83
2022-12-28T10:43:20.219Z,0.90
2022-12-28T10:45:50.355Z,0.70
2022-12-28T10:48:20.324Z,1.00
2022-12-28T10:50:52.423Z,0.90
2022-12-28T10:53:26.978Z,0.90
2022-12-28T10:56:07.562Z,0.80
2022-12-28T10:58:36.037Z,0.70
2022-12-28T11:01:19.625Z,0.83
2022-12-28T11:04:00.565Z,0.80
2022-12-28T11:06:29.944Z,0.80
2022-12-28T11:09:14.409Z,0.80
2022-12-28T11:11:43.426Z,0.80
2022-12-28T11:14:18.823Z,0.70
2022-12-28T11:16:46.712Z,0.80
2022-12-28T11:19:14.709Z,0.70
2022-12-28T11:21:44.202Z,0.80
2022-12-28T11:24:16.374Z,0.90
2022-12-28T11:26:45.890Z,0.87
2022-12-28T11:29:15.971Z,0.80
2022-12-28T11:31:47.229Z,0.90
2022-12-28T11:34:19.920Z,0.70
2022-12-28T11:36:50.931Z,0.67
2022-12-28T11:39:47.519Z,0.87
2022-12-28T11:43:03.172Z,1.03
2022-12-28T11:45:52.429Z,1.07
2022-12-28T11:48:40.188Z,0.77
2022-12-28T11:51:16.964Z,1.00
2022-12-28T11:53:57.974Z,1.00
2022-12-28T11:56:28.824Z,1.00
2022-12-28T11:59:21.707Z,0.73
2022-12-28T12:01:52.180Z,0.90
2022-12-28T12:04:42.184Z,0.60
2022-12-28T12:07:47.414Z,0.60
2022-12-28T12:10:36.983Z,0.70
2022-12-28T12:13:44.629Z,0.83
2022-12-28T12:16:30.078Z,0.77
2022-12-28T12:19:01.981Z,0.70
2022-12-28T12:21:36.866Z,1.13
2022-12-28T12:24:18.405Z,0.77
2022-12-28T12:26:52.628Z,1.10
2022-12-28T12:29:27.103Z,0.80
2022-12-28T12:32:01.139Z,0.90
2022-12-28T12:34:40.836Z,0.63
2022-12-28T12:37:37.093Z,0.63
2022-12-28T12:40:38.794Z,0.77
2022-12-28T12:43:27.845Z,0.83
2022-12-28T12:46:12.974Z,0.90
2022-12-28T12:49:08.211Z,0.70
2022-12-28T12:51:43.262Z,0.90
2022-12-28T12:54:27.106Z,0.77
2022-12-28T12:56:59.217Z,0.80
2022-12-28T13:00:02.873Z,0.77
2022-12-28T13:03:02.940Z,0.80
2022-12-28T13:05:32.242Z,1.00
2022-12-28T13:08:01.546Z,0.90
2022-12-28T13:10:33.620Z,0.70
2022-12-28T13:13:04.369Z,1.20
2022-12-28T13:15:32.987Z,0.93
2022-12-28T13:18:42.931Z,0.70
2022-12-28T13:20:57.343Z,0.77
2022-12-28T13:23:25.981Z,0.97
2022-12-28T13:25:56.037Z,0.80
2022-12-28T13:28:29.329Z,1.10
2022-12-28T13:31:02.469Z,1.27
2022-12-28T13:33:31.817Z,0.90
2022-12-28T13:36:12.727Z,1.23
2022-12-28T13:38:40.967Z,0.93
2022-12-28T13:41:21.435Z,1.00
2022-12-28T13:44:30.858Z,1.33
2022-12-28T13:47:03.838Z,1.13
2022-12-28T13:49:40.224Z,1.40
2022-12-28T13:52:12.449Z,1.10
2022-12-28T13:54:41.413Z,0.90
2022-12-28T13:57:44.464Z,1.00
2022-12-28T13:59:58.637Z,1.07
2022-12-28T14:02:29.166Z,1.00
2022-12-28T14:04:58.891Z,1.23
2022-12-28T14:07:31.439Z,1.10
2022-12-28T14:09:59.885Z,1.00
2022-12-28T14:12:28.206Z,1.17
2022-12-28T14:14:56.826Z,1.20
2022-12-28T14:17:25.754Z,1.27
2022-12-28T14:19:56.037Z,1.30
2022-12-28T14:22:30.221Z,1.17
2022-12-28T14:25:07.699Z,1.30
2022-12-28T14:27:39.352Z,1.10
2022-12-28T14:30:21.161Z,0.77
2022-12-28T14:32:49.558Z,0.97
2022-12-28T14:35:21.501Z,1.20
2022-12-28T14:37:55.116Z,1.00
2022-12-28T14:40:29.361Z,1.10
2022-12-28T14:42:58.120Z,1.43
2022-12-28T14:46:08.032Z,1.10
2022-12-28T14:48:40.427Z,1.07
2022-12-28T14:51:27.677Z,1.30
2022-12-28T14:54:20.413Z,1.03
2022-12-28T14:56:52.826Z,1.10
2022-12-28T14:59:27.536Z,1.20
2022-12-28T15:01:56.747Z,1.13
2022-12-28T15:04:37.739Z,1.13
2022-12-28T15:07:07.262Z,1.10
2022-12-28T15:09:37.574Z,1.03
2022-12-28T15:12:10.475Z,1.23
2022-12-28T15:14:38.468Z,1.40
2022-12-28T15:17:06.757Z,1.00
2022-12-28T15:19:34.733Z,1.30
2022-12-28T15:22:05.046Z,1.43
2022-12-28T15:24:36.977Z,1.47
2022-12-28T15:27:06.066Z,1.00
2022-12-28T15:32:21.906Z,1.23
2022-12-28T15:34:49.897Z,1.30
2022-12-28T15:37:17.815Z,1.07
2022-12-28T15:39:47.142Z,1.40
2022-12-28T15:42:14.953Z,1.70
2022-12-28T15:44:42.833Z,1.30
2022-12-28T15:47:11.352Z,1.60
2022-12-28T15:49:40.308Z,1.30
2022-12-28T15:52:08.238Z,1.30
2022-12-28T15:54:36.158Z,1.70
2022-12-28T15:57:05.376Z,1.40
2022-12-28T15:59:37.640Z,2.27
2022-12-28T16:02:05.567Z,2.87
2022-12-28T16:04:33.491Z,2.47
2022-12-28T16:07:01.286Z,1.70
2022-12-28T16:09:29.157Z,1.60
2022-12-28T16:11:57.061Z,1.70
2022-12-28T16:14:26.456Z,1.23
2022-12-28T16:16:54.390Z,1.50
2022-12-28T16:19:22.388Z,1.70
2022-12-28T16:21:56.068Z,1.53
2022-12-28T16:24:26.774Z,1.93
2022-12-28T16:26:54.702Z,1.90
2022-12-28T16:29:22.992Z,1.63
2022-12-28T16:31:55.185Z,1.90
2022-12-28T16:34:23.228Z,1.33
2022-12-28T16:36:56.862Z,1.60
2022-12-28T16:39:25.191Z,1.50
2022-12-28T16:41:59.365Z,1.90
2022-12-28T16:44:30.912Z,1.60
2022-12-28T16:47:01.445Z,1.40
2022-12-28T16:49:29.971Z,1.43
2022-12-28T16:51:58.527Z,1.23
2022-12-28T16:54:28.245Z,1.97
2022-12-28T16:56:56.204Z,1.20
2022-12-28T16:59:26.853Z,1.60
2022-12-28T17:01:56.107Z,1.50
2022-12-28T17:04:27.996Z,1.40
2022-12-28T17:06:55.929Z,1.60
2022-12-28T17:09:23.843Z,1.40
2022-12-28T17:11:52.038Z,1.50
2022-12-28T17:14:36.555Z,1.40
2022-12-28T17:17:05.446Z,1.30
2022-12-28T17:19:35.292Z,1.20
2022-12-28T17:22:04.064Z,1.40
2022-12-28T17:24:32.118Z,1.53
2022-12-28T17:27:06.759Z,1.73
2022-12-28T17:29:34.986Z,1.50
2022-12-28T17:32:02.933Z,1.30
2022-12-28T17:34:31.021Z,1.70
2022-12-28T17:37:00.316Z,1.50
2022-12-28T17:39:28.307Z,1.73
2022-12-28T17:41:56.322Z,1.77
2022-12-28T17:44:24.255Z,1.33
2022-12-28T17:46:52.178Z,1.70
2022-12-28T17:49:20.035Z,1.63
2022-12-28T17:51:47.831Z,1.60
2022-12-28T17:54:17.661Z,2.50
2022-12-28T17:56:45.558Z,2.33
2022-12-28T17:59:14.915Z,2.70
2022-12-28T18:01:43.106Z,2.63
2022-12-28T18:04:12.181Z,2.70
2022-12-28T18:06:40.309Z,2.73
2022-12-28T18:09:08.529Z,2.50
2022-12-28T18:11:37.700Z,2.80
2022-12-28T18:14:07.847Z,2.97
2022-12-28T18:16:35.917Z,2.87
2022-12-28T18:19:03.823Z,3.17
2022-12-28T18:21:31.630Z,3.53
2022-12-28T18:23:59.523Z,2.83
2022-12-28T18:26:28.310Z,3.70
2022-12-28T18:28:58.116Z,3.67
2022-12-28T18:31:26.457Z,3.23
2022-12-28T18:33:54.694Z,3.33
2022-12-28T18:36:22.708Z,3.00
2022-12-28T18:38:50.794Z,3.40
2022-12-28T18:41:20.892Z,4.07
2022-12-28T18:43:49.347Z,3.20
2022-12-28T18:46:18.808Z,2.97
2022-12-28T18:48:46.865Z,3.10
2022-12-28T18:51:17.456Z,3.50
2022-12-28T18:53:46.082Z,2.90
2022-12-28T18:56:16.274Z,3.13
2022-12-28T18:58:45.169Z,3.10
2022-12-28T19:01:40.112Z,3.90
2022-12-28T19:04:09.260Z,3.60
2022-12-28T19:06:38.146Z,3.13
2022-12-28T19:09:07.430Z,3.20
2022-12-28T19:11:35.688Z,4.87
2022-12-28T19:14:03.910Z,5.53
2022-12-28T19:16:32.413Z,5.17
2022-12-28T19:19:01.227Z,5.03
2022-12-28T19:21:32.226Z,4.53
2022-12-28T19:24:03.120Z,3.90
2022-12-28T19:26:32.744Z,3.77
2022-12-28T19:29:00.758Z,3.80
2022-12-28T19:31:29.034Z,3.83
2022-12-28T19:33:57.164Z,3.60
2022-12-28T19:36:25.574Z,3.67
2022-12-28T19:38:55.730Z,4.23
2022-12-28T19:41:23.649Z,4.20
2022-12-28T19:43:52.185Z,4.20
2022-12-28T19:46:22.705Z,3.93
2022-12-28T19:48:53.460Z,4.50
2022-12-28T19:51:25.781Z,4.93
2022-12-28T19:53:59.772Z,4.27
2022-12-28T19:56:27.720Z,4.63
2022-12-28T19:59:05.501Z,5.13
2022-12-28T20:01:36.688Z,4.70
2022-12-28T20:04:12.365Z,5.00
2022-12-28T20:06:41.854Z,4.83
2022-12-28T20:09:11.589Z,4.50
2022-12-28T20:11:40.523Z,4.20
2022-12-28T20:14:08.854Z,4.50
2022-12-28T20:16:36.897Z,3.63
2022-12-28T20:19:07.024Z,3.77
2022-12-28T20:21:36.412Z,3.70
2022-12-28T20:24:05.185Z,3.67
2022-12-28T20:26:35.147Z,4.20
2022-12-28T20:29:05.388Z,3.60
2022-12-28T20:31:33.492Z,3.80
2022-12-28T20:34:01.733Z,4.80
2022-12-28T20:36:31.837Z,4.50
2022-12-28T20:38:59.759Z,4.90
2022-12-28T20:41:48.873Z,4.97
2022-12-28T20:44:21.874Z,3.90
2022-12-28T20:46:49.900Z,4.00
2022-12-28T20:49:17.836Z,3.93
2022-12-28T20:51:46.952Z,3.10
2022-12-28T20:54:15.157Z,2.53
2022-12-28T20:56:43.851Z,2.20
2022-12-28T20:59:14.407Z,2.40
2022-12-28T21:01:44.602Z,2.30
2022-12-28T21:04:12.643Z,1.87
2022-12-28T21:06:43.110Z,1.80
2022-12-28T21:09:11.351Z,1.70
2022-12-28T21:11:39.229Z,1.43
2022-12-28T21:14:07.060Z,1.90
2022-12-28T21:16:35.197Z,1.93
2022-12-28T21:19:04.830Z,1.60
2022-12-28T21:21:32.724Z,1.60
2022-12-28T21:24:03.528Z,1.80
2022-12-28T21:26:31.461Z,1.70
2022-12-28T21:29:00.138Z,1.60
2022-12-28T21:31:28.100Z,1.90
2022-12-28T21:33:56.616Z,1.40
2022-12-28T21:36:27.233Z,1.93
2022-12-28T21:38:55.052Z,1.43
2022-12-28T21:41:37.498Z,1.80
2022-12-28T21:44:06.240Z,1.90
2022-12-28T21:46:35.613Z,1.90
2022-12-28T21:49:04.516Z,1.80
2022-12-28T21:51:35.941Z,1.73
2022-12-28T21:54:06.457Z,1.70
2022-12-28T21:56:35.622Z,2.00
2022-12-28T21:59:03.868Z,2.10
2022-12-28T22:01:49.625Z,1.93
2022-12-28T22:04:38.114Z,2.33
2022-12-28T22:07:09.035Z,1.93
2022-12-28T22:10:03.104Z,1.70
2022-12-28T22:12:37.157Z,1.90
2022-12-28T22:15:28.928Z,1.57
2022-12-28T22:17:58.661Z,1.80
2022-12-28T22:20:27.995Z,1.70
2022-12-28T22:22:58.919Z,1.60
2022-12-28T22:25:28.768Z,1.37
2022-12-28T22:28:00.320Z,1.80
2022-12-28T22:30:28.903Z,1.90
2022-12-28T22:32:56.840Z,2.07
2022-12-28T22:35:24.864Z,1.60
2022-12-28T22:37:55.005Z,1.53
2022-12-28T22:40:24.224Z,1.57
2022-12-28T22:42:52.112Z,1.50
2022-12-28T22:45:22.247Z,1.70
2022-12-28T22:47:50.400Z,1.90
2022-12-28T22:50:19.464Z,1.23
2022-12-28T22:52:47.637Z,1.70
2022-12-28T22:55:18.194Z,1.43
2022-12-28T22:57:47.638Z,1.30
2022-12-28T23:00:16.334Z,1.50
2022-12-28T23:02:44.711Z,1.30
2022-12-28T23:05:15.137Z,1.23
2022-12-28T23:07:43.141Z,1.40
2022-12-28T23:10:11.326Z,1.30
2022-12-28T23:12:39.368Z,1.30
2022-12-28T23:15:18.686Z,1.60
2022-12-28T23:17:47.917Z,1.50
2022-12-28T23:20:33.616Z,1.20
2022-12-28T23:23:18.853Z,1.77
2022-12-28T23:26:05.183Z,1.40
2022-12-28T23:28:36.308Z,1.50
2022-12-28T23:31:05.995Z,1.57
2022-12-28T23:33:34.168Z,1.50
2022-12-28T23:36:03.439Z,1.40
2022-12-28T23:38:32.453Z,1.37
2022-12-28T23:41:14.383Z,1.30
2022-12-28T23:43:42.259Z,1.33
2022-12-28T23:46:11.629Z,1.30
2022-12-28T23:48:39.693Z,1.30
2022-12-28T23:51:08.921Z,1.40
2022-12-28T23:53:36.963Z,1.20
2022-12-28T23:56:07.915Z,1.50
2022-12-28T23:58:35.886Z,1.50
